Time;durP1;ratioP1;P1;durP2;ratioP2;P2;SDS_P1;SDS_P2;PMS_P1;PMS_P2;Temp;Humidity;BMP_temperature;BMP_pressure;BME280_temperature;BME280_humidity;BME280_pressure;Samples;Min_cycle;Max_cycle;Signal;HPM_P1;HPM_P2
2022/05/16 00:00:49;;;;;;;;;4.00;3.00;;;;;38.20;25.07;100751.19;5075529;27;45364;-80
2022/05/16 00:03:14;;;;;;;;;2.67;2.67;;;;;38.20;24.94;100762.28;5075627;28;45532;-80
2022/05/16 00:05:39;;;;;;;;;3.67;3.67;;;;;37.88;24.99;100733.06;5075478;28;45327;-80
2022/05/16 00:08:06;;;;;;;;;3.67;3.00;;;;;38.01;24.76;100770.66;5075569;27;45422;-80
2022/05/16 00:10:31;;;;;;;;;3.33;3.00;;;;;37.67;25.30;100744.28;5075159;28;46307;-81
2022/05/16 00:12:59;;;;;;;;;2.67;2.67;;;;;37.44;24.68;100740.09;5075393;28;45475;-81
2022/05/16 00:15:25;;;;;;;;;4.00;3.00;;;;;37.23;24.97;100725.38;5074242;28;45468;-81
2022/05/16 00:17:51;;;;;;;;;3.00;3.00;;;;;37.04;25.39;100706.88;5075179;27;45593;-81
2022/05/16 00:20:17;;;;;;;;;4.00;3.00;;;;;37.43;25.44;100772.44;5073929;28;48375;-81
2022/05/16 00:22:43;;;;;;;;;3.00;3.00;;;;;37.31;25.07;100788.28;5073212;28;45466;-81
2022/05/16 00:25:11;;;;;;;;;2.67;2.67;;;;;37.20;25.36;100807.75;5075635;28;45435;-81
2022/05/16 00:27:37;;;;;;;;;4.67;3.00;;;;;37.44;25.39;100809.28;5075281;28;45378;-82
2022/05/16 00:30:09;;;;;;;;;3.67;3.67;;;;;37.37;25.77;100789.59;5075340;28;46306;-80
2022/05/16 00:32:34;;;;;;;;;5.67;4.33;;;;;37.32;25.81;100772.59;5075013;27;45289;-80
2022/05/16 00:35:00;;;;;;;;;3.00;3.00;;;;;37.44;25.08;100774.16;5075205;28;45283;-79
2022/05/16 00:37:25;;;;;;;;;4.00;3.00;;;;;37.70;25.38;100791.06;5073731;28;45463;-80
2022/05/16 00:39:51;;;;;;;;;5.00;3.67;;;;;37.83;25.72;100765.00;5073689;28;47271;-80
2022/05/16 00:42:19;;;;;;;;;4.00;3.00;;;;;37.68;25.14;100717.47;5090576;27;45521;-80
2022/05/16 00:44:44;;;;;;;;;4.00;4.00;;;;;37.65;25.77;100707.59;5073637;28;45320;-80
2022/05/16 00:47:09;;;;;;;;;3.67;3.67;;;;;37.87;25.33;100770.09;5090724;27;45312;-80
2022/05/16 00:49:38;;;;;;;;;6.00;4.00;;;;;37.84;25.35;100737.16;5074932;28;45543;-80
2022/05/16 00:52:07;;;;;;;;;5.33;4.00;;;;;38.17;25.48;100757.00;5073514;28;45396;-80
2022/05/16 00:54:37;;;;;;;;;4.00;4.00;;;;;37.99;24.95;100747.75;5074905;27;45469;-80
2022/05/16 00:57:09;;;;;;;;;3.33;2.00;;;;;37.93;25.80;100727.97;5074819;28;45449;-80
2022/05/16 01:00:14;;;;;;;;;3.67;2.33;;;;;38.18;24.44;100791.16;5074749;28;45543;-80
2022/05/16 01:05:34;;;;;;;;;5.33;5.33;;;;;37.89;25.46;100712.66;5074795;28;45439;-80
2022/05/16 01:08:04;;;;;;;;;5.00;5.00;;;;;38.28;24.90;100778.16;5078076;27;45595;-80
2022/05/16 01:10:30;;;;;;;;;5.67;4.33;;;;;37.93;25.18;100713.22;5093862;27;48198;-80
2022/05/16 01:12:56;;;;;;;;;4.00;4.00;;;;;37.98;24.80;100741.34;5078122;27;45343;-80
2022/05/16 01:15:29;;;;;;;;;4.00;4.00;;;;;38.24;25.53;100758.22;5078340;27;45345;-80
2022/05/16 01:17:55;;;;;;;;;5.00;5.00;;;;;38.19;25.02;100734.72;5077909;27;45228;-80
2022/05/16 01:20:20;;;;;;;;;5.00;4.33;;;;;38.18;25.06;100727.44;5077514;28;46448;-80
2022/05/16 01:22:49;;;;;;;;;4.00;3.67;;;;;38.15;24.87;100733.28;5077933;27;45314;-80
2022/05/16 01:25:15;;;;;;;;;4.33;4.00;;;;;38.36;25.11;100758.03;5078065;28;45547;-80
2022/05/16 01:27:51;;;;;;;;;5.00;5.00;;;;;38.24;25.00;100761.00;5076603;27;45548;-80
2022/05/16 01:30:29;;;;;;;;;4.00;4.00;;;;;38.26;24.21;100764.47;5076306;28;48183;-80
2022/05/16 01:32:54;;;;;;;;;3.00;3.00;;;;;38.05;24.79;100758.25;5077680;28;45485;-80
2022/05/16 01:35:23;;;;;;;;;4.00;4.00;;;;;37.87;24.45;100745.16;5077668;28;45322;-81
2022/05/16 01:40:33;;;;;;;;;8.33;4.00;;;;;37.72;24.50;100746.63;5077500;27;45839;-80
2022/05/16 01:42:59;;;;;;;;;6.00;6.00;;;;;37.45;25.34;100737.19;5077114;28;45345;-80
2022/05/16 01:45:24;;;;;;;;;4.33;4.33;;;;;37.50;24.97;100751.47;5077732;28;45337;-81
2022/05/16 01:47:50;;;;;;;;;3.00;3.00;;;;;37.25;24.93;100762.03;5077492;27;45287;-81
2022/05/16 01:50:15;;;;;;;;;5.33;5.33;;;;;37.29;25.05;100787.56;5093035;27;46890;-81
2022/05/16 01:52:40;;;;;;;;;5.00;5.00;;;;;36.96;25.14;100752.84;5077387;28;45266;-81
2022/05/16 01:55:07;;;;;;;;;5.67;4.67;;;;;37.03;25.23;100771.50;5076120;27;45255;-81
2022/05/16 01:57:32;;;;;;;;;5.00;5.00;;;;;36.95;25.04;100765.81;5076332;27;45212;-81
2022/05/16 01:59:58;;;;;;;;;5.00;4.00;;;;;36.93;25.25;100786.31;5077368;28;45605;-81
2022/05/16 02:02:23;;;;;;;;;5.00;5.00;;;;;36.99;25.15;100767.28;5077258;27;46197;-81
2022/05/16 02:04:49;;;;;;;;;5.00;5.00;;;;;36.73;25.44;100747.53;5076833;28;45302;-81
2022/05/16 02:07:14;;;;;;;;;4.67;4.67;;;;;36.82;25.24;100763.31;5076068;28;45441;-80
2022/05/16 02:09:39;;;;;;;;;6.67;5.67;;;;;36.39;25.90;100700.91;5076882;28;52900;-80
2022/05/16 02:12:05;;;;;;;;;6.67;6.00;;;;;36.68;25.54;100772.84;5077040;27;45246;-80
2022/05/16 02:14:30;;;;;;;;;8.67;5.67;;;;;36.84;25.38;100802.75;5076107;27;45232;-80
2022/05/16 02:16:56;;;;;;;;;4.00;4.00;;;;;36.63;26.07;100769.63;5076871;27;45581;-80
2022/05/16 02:19:21;;;;;;;;;8.33;7.33;;;;;36.67;25.22;100760.03;5076687;28;45576;-79
2022/05/16 02:24:39;;;;;;;;;7.00;6.67;;;;;36.84;25.21;100788.91;5077075;28;45371;-79
2022/05/16 02:27:18;;;;;;;;;6.33;6.33;;;;;36.88;25.47;100789.53;5077103;28;45342;-78
2022/05/16 02:29:45;;;;;;;;;7.33;7.00;;;;;36.84;25.15;100758.50;5076692;27;45587;-77
2022/05/16 02:32:12;;;;;;;;;6.00;6.00;;;;;37.02;25.67;100785.44;5076677;28;45487;-77
2022/05/16 02:34:39;;;;;;;;;6.33;6.33;;;;;36.97;25.24;100777.59;5076991;28;45504;-78
2022/05/16 02:37:05;;;;;;;;;8.33;7.33;;;;;36.87;25.31;100752.69;5076632;28;45264;-77
2022/05/16 02:39:31;;;;;;;;;6.00;6.00;;;;;36.94;25.55;100760.44;5075479;27;47028;-77
2022/05/16 02:41:57;;;;;;;;;6.00;6.00;;;;;36.81;25.68;100777.25;5076175;27;45537;-78
2022/05/16 02:44:23;;;;;;;;;9.00;7.33;;;;;36.87;25.25;100780.34;5076690;27;45450;-78
2022/05/16 02:46:48;;;;;;;;;5.00;5.00;;;;;36.62;25.69;100761.47;5076366;28;45397;-77
2022/05/16 02:49:13;;;;;;;;;8.00;8.00;;;;;36.77;25.96;100787.72;5076642;27;45426;-78
2022/05/16 02:51:39;;;;;;;;;7.00;7.00;;;;;36.82;25.91;100782.69;5076637;28;45476;-78
2022/05/16 02:54:05;;;;;;;;;7.33;6.00;;;;;36.91;26.24;100789.22;5076561;28;45402;-78
2022/05/16 02:56:31;;;;;;;;;7.00;6.00;;;;;36.87;25.93;100782.25;5076500;28;45316;-78
2022/05/16 02:58:58;;;;;;;;;6.67;6.33;;;;;36.98;25.70;100800.59;5076162;28;45345;-78
2022/05/16 03:01:24;;;;;;;;;7.00;6.00;;;;;36.96;25.70;100770.31;5076149;27;45181;-78
2022/05/16 03:03:49;;;;;;;;;7.33;7.00;;;;;36.89;25.41;100777.44;5076240;28;45185;-78
2022/05/16 03:06:15;;;;;;;;;6.67;5.33;;;;;37.04;25.39;100788.97;5092194;27;45388;-78
2022/05/16 03:08:41;;;;;;;;;8.00;8.00;;;;;36.90;25.63;100779.19;5076177;28;45594;-78
2022/05/16 03:11:06;;;;;;;;;9.00;9.00;;;;;36.82;25.71;100754.13;5076248;27;45599;-78
2022/05/16 03:13:32;;;;;;;;;6.33;6.33;;;;;36.87;25.54;100736.09;5075308;28;46149;-78
2022/05/16 03:15:59;;;;;;;;;8.33;8.00;;;;;36.98;26.06;100775.72;5075609;28;45405;-78
2022/05/16 03:18:27;;;;;;;;;9.67;8.33;;;;;37.13;26.09;100782.59;5075856;27;45512;-78
2022/05/16 03:20:52;;;;;;;;;7.00;7.00;;;;;37.24;25.19;100795.41;5075992;28;45346;-78
2022/05/16 03:23:18;;;;;;;;;8.67;8.67;;;;;37.22;25.58;100809.38;5076134;27;45393;-78
2022/05/16 03:25:44;;;;;;;;;10.67;8.00;;;;;37.12;25.87;100791.00;5076145;28;45559;-78
2022/05/16 03:28:09;;;;;;;;;6.67;6.67;;;;;37.16;25.56;100815.50;5075623;28;45399;-78
2022/05/16 03:30:35;;;;;;;;;8.33;7.00;;;;;37.24;25.92;100812.88;5073821;28;45664;-78
2022/05/16 03:33:00;;;;;;;;;3.33;3.33;;;;;37.27;25.42;100830.19;5076176;27;45365;-78
2022/05/16 03:35:26;;;;;;;;;9.33;8.00;;;;;37.20;25.66;100818.81;5091712;27;45546;-78
2022/05/16 03:37:51;;;;;;;;;7.67;6.33;;;;;37.08;25.68;100829.16;5075463;28;46135;-78
2022/05/16 03:43:00;;;;;;;;;11.33;9.67;;;;;37.02;25.80;100808.47;5075417;28;45509;-77
2022/05/16 03:45:25;;;;;;;;;12.00;9.00;;;;;37.00;26.06;100776.44;5075700;27;45345;-78
2022/05/16 03:47:51;;;;;;;;;10.33;9.67;;;;;37.38;25.55;100838.41;5075474;28;46653;-81
2022/05/16 03:50:17;;;;;;;;;9.00;9.00;;;;;37.12;25.52;100822.31;5075685;27;45428;-80
2022/05/16 03:52:42;;;;;;;;;9.00;8.00;;;;;37.13;25.88;100842.53;5075740;28;45393;-80
2022/05/16 03:55:13;;;;;;;;;10.67;8.33;;;;;36.79;25.81;100780.16;5075684;28;45386;-79
2022/05/16 03:57:39;;;;;;;;;9.00;9.00;;;;;36.70;25.82;100773.56;5075573;28;45482;-80
2022/05/16 04:00:09;;;;;;;;;9.33;8.33;;;;;36.83;25.71;100800.13;5075274;28;45317;-78
2022/05/16 04:02:36;;;;;;;;;10.67;9.67;;;;;37.03;25.75;100845.28;5075717;27;45502;-79
2022/05/16 04:05:02;;;;;;;;;10.00;9.00;;;;;36.81;25.85;100818.72;5091056;27;45530;-80
2022/05/16 04:07:27;;;;;;;;;12.33;8.67;;;;;37.13;25.73;100860.03;5075468;28;45634;-79
2022/05/16 04:09:53;;;;;;;;;6.67;5.67;;;;;36.97;25.51;100823.75;5075067;28;45476;-78
2022/05/16 04:12:18;;;;;;;;;9.33;9.33;;;;;37.08;25.69;100848.50;5075476;27;45519;-78
2022/05/16 04:14:43;;;;;;;;;12.67;10.33;;;;;36.88;26.17;100819.94;5075214;28;45318;-78
2022/05/16 04:17:09;;;;;;;;;12.00;11.00;;;;;37.02;26.03;100841.66;5074690;27;46732;-78
2022/05/16 04:19:34;;;;;;;;;8.00;8.00;;;;;36.99;26.04;100841.06;5075488;27;45448;-77
2022/05/16 04:21:59;;;;;;;;;11.67;9.67;;;;;36.93;26.14;100814.84;5075141;28;45299;-78
2022/05/16 04:24:25;;;;;;;;;12.33;11.33;;;;;37.10;26.31;100851.13;5075168;28;45381;-77
2022/05/16 04:26:50;;;;;;;;;12.33;10.67;;;;;36.84;25.94;100822.09;5074882;28;45625;-78
2022/05/16 04:29:15;;;;;;;;;9.00;7.00;;;;;36.86;25.94;100861.53;5074853;27;45373;-78
2022/05/16 04:31:41;;;;;;;;;10.00;9.33;;;;;36.90;26.41;100892.56;5074925;28;45350;-78
2022/05/16 04:34:09;;;;;;;;;15.33;13.33;;;;;36.80;26.00;100892.50;5074936;27;45326;-79
2022/05/16 04:36:36;;;;;;;;;14.33;14.00;;;;;36.54;26.08;100873.59;5090708;27;48091;-79
2022/05/16 04:39:02;;;;;;;;;12.33;12.33;;;;;36.68;26.32;100919.34;5073167;27;45651;-78
2022/05/16 04:44:12;;;;;;;;;13.00;12.33;;;;;36.63;26.21;100918.00;5077805;27;45182;-80
2022/05/16 04:46:38;;;;;;;;;18.33;15.00;;;;;36.60;26.85;100918.25;5077965;27;46252;-80
2022/05/16 04:49:03;;;;;;;;;13.33;13.33;;;;;36.79;25.95;100934.97;5077886;27;45196;-81
2022/05/16 04:51:28;;;;;;;;;13.33;8.67;;;;;36.88;26.30;100931.41;5077127;27;45243;-71
2022/05/16 04:53:54;;;;;;;;;15.33;13.33;;;;;37.05;25.76;100937.31;5078119;28;45317;-68
2022/05/16 04:56:19;;;;;;;;;13.33;12.67;;;;;37.11;25.57;100942.25;5068333;28;46377;-78
2022/05/16 04:58:45;;;;;;;;;17.00;14.00;;;;;36.99;25.62;100924.00;5057455;28;45194;-80
2022/05/16 05:01:11;;;;;;;;;17.33;14.00;;;;;37.16;25.73;100952.91;5060417;28;45567;-80
2022/05/16 05:03:36;;;;;;;;;16.67;14.67;;;;;37.01;25.71;100967.13;5076985;27;45366;-78
2022/05/16 05:06:02;;;;;;;;;12.33;12.33;;;;;37.19;25.63;100994.16;5059339;28;45821;-78
2022/05/16 05:08:27;;;;;;;;;15.33;14.33;;;;;36.97;25.97;100959.25;5073109;28;45912;-78
2022/05/16 05:16:23;;;;;;;;;15.67;14.33;;;;;37.17;26.07;101004.47;5057641;28;46171;-80
2022/05/16 05:18:48;;;;;;;;;11.33;11.33;;;;;37.25;26.18;100997.22;5072963;27;45536;-82
2022/05/16 05:21:14;;;;;;;;;14.33;14.00;;;;;37.28;25.17;100978.63;5073209;27;45497;-82
2022/05/16 05:23:40;;;;;;;;;17.33;16.33;;;;;37.38;24.99;100987.81;5075786;27;45576;-81
2022/05/16 05:26:08;;;;;;;;;18.00;16.00;;;;;37.47;25.86;100972.25;5067515;28;46226;-81
2022/05/16 05:28:34;;;;;;;;;18.33;17.33;;;;;37.49;25.44;100957.28;5066576;28;45248;-80
2022/05/16 05:31:00;;;;;;;;;15.67;14.33;;;;;37.64;25.43;100963.28;5080209;27;45546;-79
2022/05/16 05:33:26;;;;;;;;;16.00;14.67;;;;;37.69;25.21;100985.00;5067084;28;45459;-80
2022/05/16 05:35:51;;;;;;;;;19.67;16.33;;;;;37.99;24.54;101008.09;5067752;28;46218;-79
2022/05/16 05:38:18;;;;;;;;;18.67;16.33;;;;;37.67;24.97;100964.91;5066606;28;45445;-81
2022/05/16 05:40:43;;;;;;;;;19.00;17.67;;;;;37.72;24.66;100995.78;5059930;28;45513;-82
2022/05/16 05:43:09;;;;;;;;;16.67;16.00;;;;;37.77;25.10;101029.50;5054666;28;45713;-82
2022/05/16 05:45:36;;;;;;;;;15.67;13.67;;;;;37.81;24.43;101038.38;5067316;28;45589;-80
2022/05/16 05:48:01;;;;;;;;;18.67;16.00;;;;;37.68;24.70;101022.00;5074619;27;45837;-86
2022/05/16 05:50:28;;;;;;;;;23.00;19.67;;;;;37.61;25.31;101009.75;5062622;27;45485;-88
2022/05/16 05:52:53;;;;;;;;;17.67;17.33;;;;;37.67;24.66;101012.84;5074567;28;45474;-83
2022/05/16 05:55:19;;;;;;;;;17.00;16.33;;;;;37.74;25.05;101021.44;5075795;27;47408;-86
2022/05/16 05:57:44;;;;;;;;;19.67;18.67;;;;;37.74;25.36;101052.81;5072112;27;46445;-87
2022/05/16 06:00:11;;;;;;;;;17.00;15.67;;;;;37.42;24.93;101005.91;5068527;27;45542;-87
2022/05/16 06:02:40;;;;;;;;;19.00;19.00;;;;;37.79;24.79;101088.38;5058264;28;45525;-87
2022/05/16 06:05:09;;;;;;;;;17.33;14.33;;;;;37.50;25.18;101019.91;5061630;28;47478;-88
2022/05/16 06:07:35;;;;;;;;;19.33;17.67;;;;;37.72;25.20;101054.81;5094027;27;45463;-86
2022/05/16 06:10:00;;;;;;;;;20.33;16.33;;;;;37.74;25.22;101085.13;5065173;28;45408;-86
2022/05/16 06:12:26;;;;;;;;;15.67;14.00;;;;;37.34;24.80;101019.56;5060605;28;45514;-88
2022/05/16 06:14:51;;;;;;;;;20.00;17.00;;;;;37.82;24.84;101082.56;5066357;28;47584;-86
2022/05/16 06:17:17;;;;;;;;;19.67;19.00;;;;;37.42;24.28;101009.53;5066380;27;45811;-86
2022/05/16 06:19:45;;;;;;;;;19.00;17.67;;;;;37.87;25.15;101096.84;5066094;28;45461;-85
2022/05/16 06:22:10;;;;;;;;;19.00;19.00;;;;;37.67;24.41;101028.56;5088902;27;45569;-86
2022/05/16 06:27:19;;;;;;;;;19.33;17.00;;;;;37.84;24.42;101041.75;5057508;28;45583;-89
2022/05/16 06:29:45;;;;;;;;;18.33;17.67;;;;;37.44;24.23;100983.63;5065884;28;45516;-87
2022/05/16 06:32:10;;;;;;;;;20.33;18.67;;;;;37.81;24.88;101066.97;5058083;28;45418;-86
2022/05/16 06:34:35;;;;;;;;;16.00;16.00;;;;;37.90;24.55;101059.69;5063790;28;45695;-87
2022/05/16 06:37:01;;;;;;;;;14.00;14.00;;;;;38.27;24.36;101128.31;5061363;27;45680;-88
2022/05/16 06:39:26;;;;;;;;;19.00;16.67;;;;;37.85;24.34;101092.47;5067158;28;45577;-88
2022/05/16 06:41:51;;;;;;;;;18.00;16.67;;;;;37.47;24.09;101047.88;5059829;28;45642;-88
2022/05/16 06:44:19;;;;;;;;;15.67;15.33;;;;;37.35;24.62;101040.69;5055737;28;46223;-88
2022/05/16 06:46:44;;;;;;;;;19.33;17.67;;;;;37.34;24.57;101044.47;5069892;28;45822;-88
2022/05/16 06:49:11;;;;;;;;;19.67;15.00;;;;;38.08;24.06;101152.16;5078653;27;45808;-88
2022/05/16 06:51:36;;;;;;;;;16.67;15.33;;;;;37.42;24.29;101053.81;5058972;27;45501;-87
2022/05/16 06:54:03;;;;;;;;;16.67;15.67;;;;;37.77;23.86;101112.56;5068656;28;47279;-89
2022/05/16 06:56:28;;;;;;;;;18.33;15.33;;;;;37.16;24.09;101046.97;5071526;28;45455;-89
2022/05/16 06:58:54;;;;;;;;;19.00;16.33;;;;;37.34;23.84;101073.03;5071004;28;45438;-89
2022/05/16 07:01:20;;;;;;;;;16.00;14.67;;;;;37.76;23.50;101141.25;5070067;27;45674;-89
2022/05/16 07:03:45;;;;;;;;;17.67;15.67;;;;;38.08;23.70;101170.69;5069368;27;47256;-86
2022/05/16 07:06:14;;;;;;;;;17.67;14.00;;;;;37.34;24.11;101042.59;5054293;28;45449;-85
2022/05/16 07:08:41;;;;;;;;;16.00;15.00;;;;;37.58;23.94;101114.22;5058672;28;45520;-84
2022/05/16 07:11:06;;;;;;;;;16.00;14.00;;;;;38.16;23.81;101204.13;5070349;27;45533;-87
2022/05/16 07:13:32;;;;;;;;;14.33;14.33;;;;;37.18;24.02;101070.72;5066835;27;47290;-86
2022/05/16 07:15:57;;;;;;;;;17.00;14.67;;;;;38.06;23.36;101209.63;5070214;28;45588;-87
2022/05/16 07:18:23;;;;;;;;;17.67;15.00;;;;;37.41;23.30;101128.69;5060740;28;45581;-86
2022/05/16 07:20:49;;;;;;;;;14.00;13.67;;;;;37.51;23.54;101121.31;5068519;28;45469;-86
2022/05/16 07:23:16;;;;;;;;;15.00;14.00;;;;;37.55;23.78;101141.28;5057681;28;48265;-87
2022/05/16 07:28:25;;;;;;;;;15.00;14.00;;;;;37.77;23.11;101167.94;5067355;27;45449;-91
2022/05/16 07:30:51;;;;;;;;;15.67;14.00;;;;;37.64;23.15;101156.19;5068472;27;45467;-90
2022/05/16 07:33:17;;;;;;;;;14.67;13.67;;;;;38.00;23.37;101237.00;5063398;28;47101;-89
2022/05/16 07:35:43;;;;;;;;;19.67;17.00;;;;;37.44;23.34;101136.69;5063568;28;45355;-85
2022/05/16 07:38:08;;;;;;;;;14.33;13.67;;;;;37.37;23.16;101157.63;5068150;28;45452;-83
2022/05/16 07:40:37;;;;;;;;;16.00;16.00;;;;;38.01;23.09;101244.31;5064089;28;45595;-82
2022/05/16 07:43:03;;;;;;;;;14.33;14.33;;;;;37.98;23.33;101216.88;5054498;28;45485;-84
2022/05/16 07:45:29;;;;;;;;;13.67;13.67;;;;;37.98;22.97;101220.53;5062824;28;45729;-85
2022/05/16 07:47:55;;;;;;;;;14.67;13.33;;;;;38.02;22.96;101226.69;5058081;27;45933;-84
2022/05/16 07:50:22;;;;;;;;;13.33;13.00;;;;;37.61;23.40;101189.69;5061844;27;45603;-87
2022/05/16 07:52:48;;;;;;;;;14.67;12.00;;;;;37.42;23.10;101174.72;5055791;27;45851;-86
2022/05/16 07:55:19;;;;;;;;;11.33;10.33;;;;;37.55;23.42;101203.06;5081424;27;45757;-84
2022/05/16 07:57:44;;;;;;;;;13.00;13.00;;;;;37.24;23.23;101182.72;5080351;27;45357;-84
2022/05/16 08:00:11;;;;;;;;;13.33;12.33;;;;;37.00;23.34;101149.78;5063547;28;45404;-83
2022/05/16 08:02:37;;;;;;;;;11.33;11.33;;;;;37.07;23.16;101151.00;5071823;28;46951;-82
2022/05/16 08:05:16;;;;;;;;;15.00;11.67;;;;;37.92;22.78;101273.72;5066374;27;45521;-86
2022/05/16 08:11:03;;;;;;;;;10.67;9.33;;;;;36.30;22.74;100981.63;5065640;28;45611;-88
2022/05/16 08:13:58;;;;;;;;;14.00;11.33;;;;;37.27;23.14;101154.81;5075298;27;46771;-85
2022/05/16 08:16:23;;;;;;;;;12.67;11.67;;;;;36.85;22.97;101083.75;5076364;27;45318;-87
2022/05/16 08:18:57;;;;;;;;;10.00;10.00;;;;;37.74;22.58;101198.66;5081366;27;45253;-88
2022/05/16 08:21:28;;;;;;;;;14.33;14.00;;;;;37.96;22.52;101238.28;5072255;27;45612;-88
2022/05/16 08:23:53;;;;;;;;;11.00;10.00;;;;;37.82;22.30;101220.13;5074849;27;48142;-88
2022/05/16 08:26:21;;;;;;;;;11.00;8.67;;;;;37.62;22.13;101163.75;5074224;28;45473;-89
2022/05/16 08:28:47;;;;;;;;;10.67;10.67;;;;;38.18;22.05;101253.84;5074856;27;45339;-89
2022/05/16 08:31:12;;;;;;;;;12.00;11.33;;;;;37.98;22.66;101225.19;5080252;27;45496;-88
2022/05/16 08:33:39;;;;;;;;;10.33;9.67;;;;;37.44;22.09;101145.00;5070937;28;46007;-88
2022/05/16 08:42:02;;;;;;;;;11.33;10.00;;;;;38.35;22.09;101288.38;5069040;27;45472;-87
2022/05/16 08:44:40;;;;;;;;;9.33;9.33;;;;;38.36;22.50;101302.09;5065122;27;47102;-87
2022/05/16 08:47:26;;;;;;;;;13.33;11.00;;;;;38.06;21.77;101226.25;5082218;27;45491;-87
2022/05/16 08:49:56;;;;;;;;;12.00;11.00;;;;;38.49;22.45;101300.97;5075644;27;45511;-87
2022/05/16 08:52:27;;;;;;;;;10.67;10.67;;;;;38.74;22.42;101303.25;5087859;27;45488;-87
2022/05/16 08:55:27;;;;;;;;;11.00;9.33;;;;;38.82;21.63;101302.56;5070209;27;45592;-88
2022/05/16 08:58:00;;;;;;;;;11.00;11.00;;;;;38.76;21.82;101279.06;5063380;28;45480;-88
2022/05/16 09:00:25;;;;;;;;;10.33;10.00;;;;;38.76;21.68;101303.13;5064750;27;45526;-87
2022/05/16 09:02:54;;;;;;;;;12.00;12.00;;;;;38.08;21.83;101176.25;5069408;27;45484;-87
2022/05/16 09:05:23;;;;;;;;;11.00;9.00;;;;;38.77;21.83;101266.91;5070094;28;47092;-87
2022/05/16 09:07:52;;;;;;;;;10.33;8.33;;;;;38.44;21.84;101188.63;5081738;27;45906;-87
2022/05/16 09:10:55;;;;;;;;;12.33;9.33;;;;;39.06;21.26;101318.81;5080034;27;45474;-87
2022/05/16 09:13:36;;;;;;;;;9.67;9.00;;;;;38.45;21.36;101217.19;5024363;28;45477;-87
2022/05/16 09:16:10;;;;;;;;;8.33;8.33;;;;;38.61;21.34;101228.63;5016622;28;47370;-86
2022/05/16 09:19:00;;;;;;;;;10.33;9.33;;;;;38.48;21.23;101204.97;5019690;28;45439;-86
2022/05/16 09:21:51;;;;;;;;;8.67;8.67;;;;;38.22;20.91;101178.63;5016132;28;45575;-87
2022/05/16 09:24:27;;;;;;;;;8.00;7.67;;;;;38.85;21.72;101299.50;5024515;28;45575;-84
2022/05/16 09:27:06;;;;;;;;;7.33;7.33;;;;;38.97;21.93;101339.06;5020699;28;47194;-86
2022/05/16 09:29:37;;;;;;;;;10.00;10.00;;;;;38.98;22.19;101339.97;5027738;28;45502;-87
2022/05/16 09:32:14;;;;;;;;;11.00;10.67;;;;;38.43;21.83;101292.19;5021299;28;45505;-85
2022/05/16 09:34:41;;;;;;;;;10.67;9.67;;;;;38.77;22.69;101349.25;5009794;28;45523;-85
2022/05/16 09:37:07;;;;;;;;;6.00;6.00;;;;;38.58;21.91;101325.97;5021630;28;48237;-82
2022/05/16 09:39:34;;;;;;;;;9.67;8.00;;;;;38.35;22.17;101299.47;5022057;28;45500;-83
2022/05/16 09:42:15;;;;;;;;;8.67;8.67;;;;;38.20;22.36;101297.03;5022364;28;45452;-83
2022/05/16 09:44:47;;;;;;;;;9.00;9.00;;;;;38.65;22.68;101348.47;5022197;28;45456;-83
2022/05/16 09:47:34;;;;;;;;;9.00;8.00;;;;;38.68;22.68;101347.31;5013814;28;46412;-82
2022/05/16 09:50:02;;;;;;;;;8.00;8.00;;;;;38.95;22.40;101352.22;5032515;28;45548;-83
2022/05/16 09:52:33;;;;;;;;;10.67;9.00;;;;;38.93;21.49;101357.94;5048357;28;45437;-83
2022/05/16 09:55:01;;;;;;;;;8.33;8.00;;;;;38.89;21.98;101348.13;5046761;28;45438;-83
2022/05/16 09:57:27;;;;;;;;;11.00;10.33;;;;;38.55;21.96;101330.91;5047310;28;45578;-83
2022/05/16 10:00:12;;;;;;;;;8.33;8.33;;;;;38.74;22.49;101341.22;5043155;28;45382;-83
2022/05/16 10:02:38;;;;;;;;;7.33;7.33;;;;;38.61;22.01;101347.00;5052696;28;45501;-83
2022/05/16 10:05:22;;;;;;;;;10.33;9.00;;;;;38.48;21.77;101366.59;5044710;28;45557;-83
2022/05/16 10:07:58;;;;;;;;;8.00;8.00;;;;;38.57;22.27;101346.38;5051254;28;46085;-83
2022/05/16 10:10:30;;;;;;;;;9.00;7.67;;;;;38.74;21.87;101358.72;5042919;28;46062;-82
2022/05/16 10:12:57;;;;;;;;;6.33;6.33;;;;;38.59;21.93;101346.25;5037040;28;45559;-82
2022/05/16 10:15:23;;;;;;;;;7.00;7.00;;;;;38.48;21.58;101318.63;5053787;28;45583;-82
2022/05/16 10:17:52;;;;;;;;;5.67;5.67;;;;;38.38;20.81;101337.97;5059713;27;46122;-82
2022/05/16 10:20:22;;;;;;;;;6.00;6.00;;;;;38.12;21.35;101320.88;5044049;27;45476;-82
2022/05/16 10:22:58;;;;;;;;;6.00;5.00;;;;;37.70;20.68;101241.47;5041638;28;45272;-82
2022/05/16 10:25:29;;;;;;;;;6.00;6.00;;;;;38.58;20.73;101384.19;5044040;28;45557;-82
2022/05/16 10:27:57;;;;;;;;;9.67;8.67;;;;;38.52;21.32;101351.44;5043566;28;46065;-82
2022/05/16 10:30:27;;;;;;;;;8.67;7.33;;;;;38.22;21.10;101272.00;5047450;28;45444;-83
2022/05/16 10:36:05;;;;;;;;;7.00;7.00;;;;;38.26;21.27;101279.00;5044948;28;45403;-83
2022/05/16 10:38:34;;;;;;;;;10.00;9.00;;;;;38.70;20.71;101396.06;5038915;28;48115;-82
2022/05/16 10:41:03;;;;;;;;;9.00;8.00;;;;;38.71;21.41;101389.53;5043523;28;45473;-83
2022/05/16 10:43:50;;;;;;;;;15.67;9.33;;;;;38.63;20.95;101399.53;5061719;28;45418;-82
2022/05/16 10:46:22;;;;;;;;;8.00;7.67;;;;;38.60;21.38;101392.34;5067816;28;45537;-85
2022/05/16 10:49:00;;;;;;;;;9.33;8.33;;;;;38.87;21.03;101388.97;5064381;27;47320;-83
2022/05/16 10:51:33;;;;;;;;;10.33;8.33;;;;;38.55;21.19;101340.13;5068171;27;45447;-83
2022/05/16 10:54:08;;;;;;;;;9.33;9.33;;;;;38.92;20.57;101399.69;5067081;28;45319;-82
2022/05/16 10:56:49;;;;;;;;;8.00;8.00;;;;;39.04;20.97;101392.97;5067889;27;45658;-84
2022/05/16 10:59:33;;;;;;;;;7.67;7.67;;;;;38.93;20.91;101382.88;5063835;28;46462;-81
2022/05/16 11:02:10;;;;;;;;;11.67;10.00;;;;;38.88;20.87;101385.19;5073002;27;45551;-83
2022/05/16 11:05:01;;;;;;;;;7.67;7.67;;;;;38.52;21.31;101347.81;5066914;28;45614;-82
2022/05/16 11:07:37;;;;;;;;;7.67;7.67;;;;;38.86;21.36;101394.69;5063448;27;45366;-83
2022/05/16 11:10:12;;;;;;;;;8.00;6.33;;;;;39.11;20.37;101390.50;5062052;28;47296;-84
2022/05/16 11:12:48;;;;;;;;;5.00;5.00;;;;;38.86;20.11;101351.19;5064492;27;45976;-84
2022/05/16 11:15:29;;;;;;;;;9.33;8.33;;;;;39.28;19.80;101391.75;5061389;28;45575;-80
2022/05/16 11:18:04;;;;;;;;;10.00;8.00;;;;;39.27;20.71;101378.88;5069692;27;45226;-80
2022/05/16 11:20:42;;;;;;;;;7.67;7.67;;;;;39.39;19.97;101393.53;5058065;28;45980;-79
2022/05/16 11:23:23;;;;;;;;;7.67;7.33;;;;;39.53;20.26;101387.53;5065153;27;45605;-81
2022/05/16 11:25:59;;;;;;;;;12.00;9.00;;;;;39.72;20.16;101361.72;5059878;28;45428;-81
2022/05/16 11:28:27;;;;;;;;;8.67;8.33;;;;;40.03;20.23;101372.66;5080771;27;45428;-83
2022/05/16 11:31:19;;;;;;;;;8.33;8.33;;;;;39.84;19.96;101365.19;5070182;27;48069;-82
2022/05/16 11:33:53;;;;;;;;;10.00;9.33;;;;;39.87;20.18;101364.88;5073035;27;45425;-80
2022/05/16 11:36:24;;;;;;;;;8.33;8.33;;;;;39.93;19.94;101361.53;5057214;28;45513;-80
2022/05/16 11:39:01;;;;;;;;;11.00;9.00;;;;;39.98;19.90;101397.19;5066415;28;45337;-82
2022/05/16 11:41:49;;;;;;;;;7.33;7.33;;;;;40.11;19.55;101389.47;5058478;28;47115;-81
2022/05/16 11:44:28;;;;;;;;;9.00;9.00;;;;;40.09;19.86;101385.94;5069470;27;45424;-83
2022/05/16 11:47:41;;;;;;;;;8.00;8.00;;;;;40.11;19.74;101388.56;5065956;28;45537;-80
2022/05/16 11:50:21;;;;;;;;;10.00;8.33;;;;;40.17;19.26;101379.66;5022595;28;45603;-82
2022/05/16 11:53:15;;;;;;;;;11.33;8.67;;;;;40.30;19.57;101366.28;5013339;28;45575;-84
2022/05/16 12:01:31;;;;;;;;;7.00;7.00;;;;;40.64;19.09;101376.88;5006800;28;45377;-80
2022/05/16 12:04:16;;;;;;;;;8.00;8.00;;;;;40.44;19.58;101367.72;5011393;28;46258;-81
2022/05/16 12:06:49;;;;;;;;;10.00;9.00;;;;;40.62;19.36;101366.94;5003090;28;45452;-80
2022/05/16 12:09:17;;;;;;;;;8.67;8.67;;;;;40.73;19.24;101371.41;5011950;28;45532;-79
2022/05/16 12:12:04;;;;;;;;;8.67;7.67;;;;;40.66;19.60;101351.69;5011076;28;45533;-79